Tiempo atmosférico en la estación meteorológica de Tinajo, Las Palmas (275 m.)



Fecha
DESCASC
Temp. máxima en grados centígrados (hora)
DESCASC
Temp. mínima en grados centígrados (hora)
DESCASC
Temp. media en grados centígrados
DESCASC
Racha de viento máxima en m/sg (hora)
DESCASC
Velocidad máxima media en intervalos de 10 minutos(hora)
DESCASC
Precipitaciones diarias en mm
DESCASC
Precipitaciones de 00:00 a 06:00 en mm
DESCASC
Precipitaciones de 06:00 a 12:00 en mm
DESCASC
Precipitaciones de 12:00 a 18:00 en mm
DESCASC
Precipitaciones de 18:00 a 24:00 en mm
DESCASC
05-04-2020 22.1 (15:10) 15.4 (06:10) 18.8 10 (16:40) 6.67 (16:00) 0 0 0 0 0
04-04-2020 23.2 (16:10) 15.7 (00:00) 19.5 9.72 (13:50) 6.94 (14:20) 0 0 0 0 0
03-04-2020 21.3 (17:20) 11.1 (05:10) 16.2 9.44 (17:00) 6.39 (17:40) 0 0 0 0 0
02-04-2020 18.8 (14:40) 13.7 (00:00) 16.2 10.28 (17:00) 6.11 (15:00) 0 0 0 0 0
01-04-2020 19.9 (16:00) 11.5 (00:00) 15.7 7.78 (15:30) 4.72 (16:40) 0 0 0 0 0
31-03-2020 20.9 (15:40) 14.6 (00:00) 17.8 10.83 (00:10) 6.94 (00:50) 0 0 0 0 0
30-03-2020 20.1 (16:40) 12 (00:00) 16.1 12.5 (19:40) 8.06 (18:50) 0 0 0 0 0
29-03-2020 18.9 (13:00) 11.2 (00:00) 15 6.94 (13:20) 4.44 (17:20) 0 0 0 0 0
28-03-2020 18.8 (14:00) 12 (00:00) 15.4 8.61 (13:40) 5 (13:20) 0 0 0 0 0
27-03-2020 18.8 (14:10) 13.9 (00:00) 16.3 9.17 (14:50) 5.28 (10:00) 0.2 0.2 0 0 0
26-03-2020 18.4 (15:20) 11.7 (00:00) 15 8.33 (19:50) 5 (16:40) 0.8 0 0 0 0.8
25-03-2020 18.2 (13:50) 13.3 (00:00) 15.8 9.72 (03:20) 6.39 (16:50) 0 0 0 0 0
24-03-2020 18 (13:50) 13.3 (00:00) 15.7 14.17 (15:50) 9.17 (16:30) 0.6 0.6 0 0 0
23-03-2020 15.8 (16:50) 10.3 (00:00) 13.1 12.78 (17:00) 8.61 (17:00) 8.4 6.4 0 0.6 1.4
22-03-2020 18.5 (15:00) 12.9 (23:10) 15.7 13.61 (17:20) 8.06 (17:20) 2.4 0 0 0.2 2.2
21-03-2020 17.1 (12:20) 13.6 (00:00) 15.4 11.67 (19:00) 7.78 (16:40) 0 0 0 0 0
20-03-2020 17.4 (13:30) 14.1 (00:00) 15.8 12.78 (01:10) 8.06 (09:50) 1 1 0 0 0
19-03-2020 18.6 (14:50) 13.2 (00:00) 15.9 15.28 (03:40) 9.72 (03:40) 0.8 0.8 0 0 0
18-03-2020 17.1 (14:20) 12.3 (00:00) 14.7 19.72 (19:40) 13.33 (19:40) 1.4 0.4 1 0 0
17-03-2020 16.7 (13:50) 12.8 (00:00) 14.8 18.61 (10:30) 11.11 (04:30) 0 0 0 0 0
16-03-2020 18.5 (11:40) 13.9 (00:00) 16.2 16.67 (14:10) 11.11 (16:10) 0 0 0 0 0
15-03-2020 17.8 (13:20) 14 (00:00) 15.9 13.33 (23:30) 7.78 (23:30) 0 0 0 0 0
14-03-2020 17.5 (11:50) 14.1 (00:00) 15.8 12.78 (06:30) 7.5 (08:30) 0 0 0 0 0
13-03-2020 19 (13:00) 14.7 (04:00) 16.8 12.78 (22:30) 7.78 (15:30) 0 0 0 0 0
12-03-2020 26.6 (12:50) 15.3 (00:00) 21 8.89 (17:50) 5.83 (16:20) 0 0 0 0 0
11-03-2020 28.2 (15:10) 11.7 (00:00) 20 8.33 (13:10) 5.83 (12:50) 0 0 0 0 0
10-03-2020 20.9 (13:40) 13.3 (00:00) 17.1 9.17 (05:20) 6.67 (05:20) 0 0 0 0 0
09-03-2020 25.2 (11:30) 13.8 (00:00) 19.5 11.67 (00:40) 8.33 (00:10) 0 0 0 0 0
08-03-2020 26.4 (15:10) 14.2 (00:00) 20.3 13.33 (12:00) 7.5 (23:59) 0 0 0 0 0

Gráficas

Temp. máximas Temp. mínimas Temp. medias Precipitaciones Rachas de viento máximas Velocidades máximas media en intervalos de 10 minutos

Datos horarios

Fecha y hora oficial Temperatura (ºC) Velocidad del viento (km/h) Dirección del viento Racha (km/h) Dirección de racha Precipitación (mm) Presión (hPa) Tendencia (hPa) Humedad (%)
2020-04-06 23:00:00 17.6 12 Norte 17 Norte 0 -- -- 89
2020-04-06 22:00:00 17.5 8 Norte 15 Norte 0 -- -- 87
2020-04-06 21:00:00 17.9 10 Norte 20 Norte 0 -- -- 83
2020-04-06 20:00:00 18.5 14 Norte 24 Norte 0 -- -- 80
2020-04-06 19:00:00 19.6 16 Norte 29 Noroeste 0 -- -- 73
2020-04-06 18:00:00 20 19 Norte 30 Norte 0 -- -- 69
2020-04-06 17:00:00 21 17 Norte 29 Norte 0 -- -- 64
2020-04-06 16:00:00 21.3 15 Norte 25 Norte 0 -- -- 62
2020-04-06 15:00:00 20.8 17 Norte 26 Norte 0 -- -- 65
2020-04-06 14:00:00 20.6 12 Norte 22 Norte 0 -- -- 70
2020-04-06 13:00:00 19.7 12 Norte 24 Norte 0 -- -- 73
2020-04-06 12:00:00 19.3 13 Norte 22 Norte 0 -- -- 75
2020-04-06 11:00:00 18.3 11 Norte 19 Norte 0 -- -- 83
2020-04-06 10:00:00 17.3 13 Norte 32 Norte 0 -- -- 92
2020-04-06 09:00:00 17.2 11 Norte 19 Norte 0 -- -- 94
2020-04-06 08:00:00 16.9 10 Norte 17 Norte 0 -- -- 94
2020-04-06 07:00:00 16.8 10 Norte 15 Norte 0 -- -- 94
2020-04-06 06:00:00 16.9 10 Noroeste 18 Noroeste 0 -- -- 94
2020-04-06 05:00:00 16.9 7 Noroeste 13 Noroeste 0 -- -- 93
2020-04-06 04:00:00 17.1 8 Noroeste 17 Noroeste 0 -- -- 93
2020-04-06 03:00:00 17.2 12 Noroeste 18 Noroeste 0 -- -- 93
2020-04-06 02:00:00 17.2 10 Noroeste 17 Noroeste 0 -- -- 92
2020-04-06 01:00:00 17.3 11 Noroeste 16 Noroeste 0 -- -- 92
2020-04-06 00:00:00 17.5 10 Noroeste 16 Noroeste 0 -- -- 91
2020-04-05 23:00:00 17.7 9 Noroeste 15 Noroeste 0 -- -- 89
2020-04-05 22:00:00 18 12 Noroeste 17 Noroeste 0 -- -- 88
2020-04-05 21:00:00 18.2 10 Noroeste 18 Noroeste 0 -- -- 86
2020-04-05 20:00:00 18.8 12 Noroeste 21 Noroeste 0 -- -- 82
2020-04-05 19:00:00 19.4 14 Noroeste 23 Noroeste 0 -- -- 77
2020-04-05 18:00:00 20.2 16 Noroeste 27 Oeste 0 -- -- 74
2020-04-05 17:00:00 21.2 20 Noroeste 36 Noroeste 0 -- -- 68
2020-04-05 16:00:00 21.9 24 Noroeste 35 Noroeste 0 -- -- 65
2020-04-05 15:00:00 22 21 Noroeste 32 Noroeste 0 -- -- 66
2020-04-05 14:00:00 21.9 19 Noroeste 28 Oeste 0 -- -- 63
2020-04-05 13:00:00 21.5 14 Oeste 28 Noroeste 0 -- -- 67
2020-04-05 12:00:00 21.4 18 Noroeste 31 Oeste 0 -- -- 69
2020-04-05 11:00:00 20.3 19 Oeste 27 Oeste 0 -- -- 68
2020-04-05 10:00:00 18.6 15 Oeste 21 Oeste 0 -- -- 82
2020-04-05 09:00:00 17.2 8 Oeste 13 Oeste 0 -- -- 91
2020-04-05 08:00:00 15.8 6 Oeste 13 Oeste 0 -- -- 92
2020-04-05 07:00:00 15.7 7 Sudoeste 12 Oeste 0 -- -- 91
2020-04-05 06:00:00 15.7 8 Oeste 12 Sudoeste 0 -- -- 90
2020-04-05 05:00:00 15.6 9 Oeste 12 Oeste 0 -- -- 91
2020-04-05 04:00:00 16 8 Sudoeste 16 Oeste 0 -- -- 90
2020-04-05 03:00:00 16.3 12 Oeste 16 Oeste 0 -- -- 88
2020-04-05 02:00:00 16.1 4 Sudoeste 10 Oeste 0 -- -- 88
2020-04-05 01:00:00 16.5 8 Sudoeste 9 Sudoeste 0 -- -- 88
2020-04-05 00:00:00 17.1 3 Noroeste 15 Oeste 0 -- -- 84
2020-04-04 23:00:00 17.6 8 Oeste 16 Oeste 0 -- -- 84
2020-04-04 22:00:00 18.3 10 Noroeste 16 Noroeste 0 -- -- 81
2020-04-04 21:00:00 18.9 8 Oeste 10 Oeste 0 -- -- 78
2020-04-04 20:00:00 19.5 6 Noroeste 18 Noroeste 0 -- -- 72
2020-04-04 19:00:00 21.2 13 Noroeste 25 Noroeste 0 -- -- 64
2020-04-04 18:00:00 21.9 18 Noroeste 33 Noroeste 0 -- -- 62
2020-04-04 17:00:00 22.9 20 Oeste 32 Noroeste 0 -- -- 57
2020-04-04 16:00:00 22.9 19 Oeste 34 Oeste 0 -- -- 56
2020-04-04 15:00:00 22.8 22 Noroeste 35 Oeste 0 -- -- 57
2020-04-04 14:00:00 23 22 Oeste 35 Oeste 0 -- -- 56
2020-04-04 13:00:00 22.1 16 Oeste 32 Oeste 0 -- -- 59
2020-04-04 12:00:00 20.8 17 Sudoeste 29 Sudoeste 0 -- -- 70
2020-04-04 11:00:00 19.4 19 Oeste 27 Sudoeste 0 -- -- 76
2020-04-04 10:00:00 18.2 16 Sudoeste 27 Sudoeste 0 -- -- 83
2020-04-04 09:00:00 17.4 15 Sudoeste 22 Sudoeste 0 -- -- 86
2020-04-04 08:00:00 16.4 12 Sudoeste 21 Sudoeste 0 -- -- 89
2020-04-04 07:00:00 16.5 17 Sudoeste 28 Sudoeste 0 -- -- 89
2020-04-04 06:00:00 16.3 19 Sudoeste 30 Sudoeste 0 -- -- 89
2020-04-04 05:00:00 16.3 15 Sudoeste 31 Sudoeste 0 -- -- 88
2020-04-04 04:00:00 16.5 21 Sudoeste 31 Sudoeste 0 -- -- 86
2020-04-04 03:00:00 16.4 18 Sudoeste 31 Sur 0 -- -- 83
2020-04-04 02:00:00 16.4 19 Sur 29 Sudoeste 0 -- -- 79
2020-04-04 01:00:00 16.1 21 Sudoeste 29 Sur 0 -- -- 76
2020-04-04 00:00:00 15.7 17 Sur 24 Sur 0 -- -- 80
2020-04-03 23:00:00 15.7 11 Sudoeste 21 Sudoeste 0 -- -- 83
2020-04-03 22:00:00 15.9 7 Sudoeste 24 Sudoeste 0 -- -- 80
2020-04-03 21:00:00 16.5 19 Oeste 26 Sudoeste 0 -- -- 78
2020-04-03 20:00:00 17.8 15 Oeste 27 Oeste 0 -- -- 69
2020-04-03 19:00:00 19 12 Oeste 30 Oeste 0 -- -- 62
2020-04-03 18:00:00 20.1 21 Oeste 33 Sur 0 -- -- 57
2020-04-03 17:00:00 20.7 17 Noroeste 34 Norte 0 -- -- 49
2020-04-03 16:00:00 20.3 15 Noroeste 33 Oeste 0 -- -- 59
2020-04-03 15:00:00 19.6 16 Noroeste 27 Oeste 0 -- -- 63
2020-04-03 14:00:00 19.3 17 Noroeste 28 Oeste 0 -- -- 62
2020-04-03 13:00:00 20 10 Sur 18 Sur 0 -- -- 57
2020-04-03 12:00:00 18.3 8 Sudeste 13 Este 0 -- -- 56
2020-04-03 11:00:00 16.5 7 Nordeste 14 Nordeste 0 -- -- 68
2020-04-03 10:00:00 15.4 8 Nordeste 13 Nordeste 0 -- -- 76
2020-04-03 09:00:00 13.1 0 Calma 5 Sudeste 0 -- -- 86
2020-04-03 08:00:00 11.8 4 Sur 8 Sudeste 0 -- -- 84
2020-04-03 07:00:00 11.6 6 Sudeste 8 Sudeste 0 -- -- 86
2020-04-03 06:00:00 11.7 2 Sudeste 5 Este 0 -- -- 85
2020-04-03 05:00:00 11.2 3 Sudeste 4 Sudeste 0 -- -- 84
2020-04-03 04:00:00 12 3 Sudeste 7 Este 0 -- -- 82
2020-04-03 03:00:00 12.7 4 Este 6 Este 0 -- -- 81
2020-04-03 02:00:00 13.2 3 Sudeste 19 Norte 0 -- -- 81
2020-04-03 01:00:00 14.2 13 Nordeste 26 Nordeste 0 -- -- 78
2020-04-03 00:00:00 14.3 13 Nordeste 27 Nordeste 0 -- -- 76
2020-04-02 23:00:00 14.4 14 Nordeste 30 Nordeste 0 -- -- 76
2020-04-02 22:00:00 14.7 19 Nordeste 29 Nordeste 0 -- -- 75
2020-04-02 21:00:00 14.9 14 Nordeste 32 Nordeste 0 -- -- 72
2020-04-02 20:00:00 15.4 16 Nordeste 30 Norte 0 -- -- 68
2020-04-02 19:00:00 16.3 20 Nordeste 31 Nordeste 0 -- -- 68
2020-04-02 18:00:00 17.4 20 Norte 30 Nordeste 0 -- -- 62
2020-04-02 17:00:00 18.4 18 Norte 37 Norte 0 -- -- 56
2020-04-02 16:00:00 18.7 19 Nordeste 35 Norte 0 -- -- 57
2020-04-02 15:00:00 18.6 22 Norte 34 Norte 0 -- -- 59
2020-04-02 14:00:00 18.1 17 Norte 35 Nordeste 0 -- -- 61
2020-04-02 13:00:00 18.4 18 Norte 32 Nordeste 0 -- -- 58
2020-04-02 12:00:00 17.8 21 Nordeste 33 Nordeste 0 -- -- 58
2020-04-02 11:00:00 16.7 18 Nordeste 32 Nordeste 0 -- -- 64
2020-04-02 10:00:00 16.3 20 Nordeste 35 Nordeste 0 -- -- 69
2020-04-02 09:00:00 15 15 Nordeste 30 Nordeste 0 -- -- 75
2020-04-02 08:00:00 14.1 18 Nordeste 28 Nordeste 0 -- -- 81
2020-04-02 07:00:00 14.2 14 Nordeste 27 Norte 0 -- -- 83
2020-04-02 06:00:00 14.3 13 Nordeste 24 Nordeste 0 -- -- 84
2020-04-02 05:00:00 14.3 14 Nordeste 25 Nordeste 0 -- -- 86
2020-04-02 04:00:00 14.5 15 Nordeste 26 Nordeste 0 -- -- 84
2020-04-02 03:00:00 13.8 8 Nordeste 19 Nordeste 0 -- -- 87
2020-04-02 02:00:00 15.1 13 Nordeste 23 Nordeste 0 -- -- 84
2020-04-02 01:00:00 14 7 Nordeste 16 Nordeste 0 -- -- 84
2020-04-02 00:00:00 14.7 9 Nordeste 16 Nordeste 0 -- -- 82
2020-04-01 23:00:00 15.3 12 Nordeste 20 Nordeste 0 -- -- 81
2020-04-01 22:00:00 15.9 12 Nordeste 21 Nordeste 0 -- -- 78
2020-04-01 21:00:00 16.1 14 Norte 22 Norte 0 -- -- 76
2020-04-01 20:00:00 16.7 15 Norte 24 Norte 0 -- -- 73
2020-04-01 19:00:00 17.7 16 Norte 27 Norte 0 -- -- 67
2020-04-01 18:00:00 18.4 15 Norte 26 Norte 0 -- -- 64
2020-04-01 17:00:00 19.1 16 Norte 27 Norte 0 -- -- 59
2020-04-01 16:00:00 19.9 12 Norte 28 Nordeste 0 -- -- 58
2020-04-01 15:00:00 19.3 16 Norte 27 Norte 0 -- -- 61
2020-04-01 14:00:00 19.2 14 Norte 23 Norte 0 -- -- 62
2020-04-01 13:00:00 19.2 12 Norte 24 Norte 0 -- -- 61
2020-04-01 12:00:00 19.3 13 Norte 22 Norte 0 -- -- 64
2020-04-01 11:00:00 18.1 6 Norte 13 Norte 0 -- -- 61
2020-04-01 10:00:00 16.5 9 Norte 14 Nordeste 0 -- -- 76
2020-04-01 09:00:00 14.6 7 Norte 9 Norte 0 -- -- 88
2020-04-01 08:00:00 11.7 0 Calma 4 Sudeste 0 -- -- 91
2020-04-01 07:00:00 12.7 0 Calma 3 Norte 0 -- -- 89
2020-04-01 06:00:00 12.7 2 Noroeste 5 Noroeste 0 -- -- 89
2020-04-01 05:00:00 12.9 3 Noroeste 5 Noroeste 0 -- -- 88
2020-04-01 04:00:00 13.6 0 Calma 3 Noroeste 0 -- -- 85
2020-04-01 03:00:00 14.3 0 Calma 8 Noroeste 0 -- -- 84
2020-04-01 02:00:00 15.2 7 Noroeste 17 Noroeste 0 -- -- 82
2020-04-01 01:00:00 15.4 11 Noroeste 17 Noroeste 0 -- -- 83
2020-04-01 00:00:00 15.7 10 Noroeste 17 Noroeste 0 -- -- 83
2020-03-31 23:00:00 16 10 Noroeste 17 Noroeste 0 -- -- 84
2020-03-31 22:00:00 16.2 12 Noroeste 21 Noroeste 0 -- -- 82
2020-03-31 21:00:00 16.6 14 Noroeste 23 Noroeste 0 -- -- 76
2020-03-31 20:00:00 17.5 18 Noroeste 32 Oeste 0 -- -- 72
2020-03-31 19:00:00 18.6 23 Noroeste 35 Oeste 0 -- -- 67
2020-03-31 18:00:00 19.4 23 Noroeste 32 Noroeste 0 -- -- 65
2020-03-31 17:00:00 19.5 22 Noroeste 35 Oeste 0 -- -- 62
2020-03-31 16:00:00 19.7 22 Oeste 32 Oeste 0 -- -- 59
2020-03-31 15:00:00 20.6 21 Oeste 36 Oeste 0 -- -- 55
2020-03-31 14:00:00 20.4 22 Oeste 32 Oeste 0 -- -- 52
2020-03-31 13:00:00 20 20 Oeste 31 Noroeste 0 -- -- 51
2020-03-31 12:00:00 19.6 22 Oeste 32 Oeste 0 -- -- 60
2020-03-31 11:00:00 18.7 21 Noroeste 31 Oeste 0 -- -- 64
2020-03-31 10:00:00 17.2 21 Oeste 28 Oeste 0 -- -- 78
2020-03-31 09:00:00 16.1 16 Oeste 27 Oeste 0 -- -- 87
2020-03-31 08:00:00 14.6 9 Oeste 19 Oeste 0 -- -- 90
2020-03-31 07:00:00 15.1 13 Oeste 19 Oeste 0 -- -- 89
2020-03-31 06:00:00 15.2 12 Oeste 18 Noroeste 0 -- -- 90
2020-03-31 05:00:00 15.3 13 Oeste 22 Noroeste 0 -- -- 89
2020-03-31 04:00:00 15.6 13 Oeste 24 Oeste 0 -- -- 89
2020-03-31 03:00:00 15.8 9 Oeste 29 Oeste 0 -- -- 90
2020-03-31 02:00:00 16.2 21 Oeste 35 Oeste 0 -- -- 88
2020-03-31 01:00:00 16.3 21 Oeste 39 Oeste -- -- -- 81
2020-03-31 00:00:00 16.5 27 Oeste 40 Oeste 0 -- -- 85
2020-03-30 23:00:00 16.4 21 Oeste 38 Oeste 0 -- -- 80
2020-03-30 22:00:00 16.6 27 Oeste 37 Oeste 0 -- -- 80
2020-03-30 21:00:00 16.8 23 Oeste 41 Oeste 0 -- -- 79
2020-03-30 20:00:00 17.1 26 Oeste 45 Oeste 0 -- -- 75
2020-03-30 19:00:00 17.4 28 Oeste 44 Oeste 0 -- -- 73
2020-03-30 18:00:00 18.8 24 Oeste 39 Oeste 0 -- -- 68
2020-03-30 17:00:00 19.8 24 Oeste 39 Oeste 0 -- -- 64
2020-03-30 16:00:00 19.8 26 Oeste 37 Oeste 0 -- -- 64
2020-03-30 15:00:00 18.3 22 Oeste 32 Noroeste 0 -- -- 73
2020-03-30 14:00:00 18.5 21 Oeste 35 Oeste 0 -- -- 70
2020-03-30 13:00:00 17.8 19 Oeste 34 Oeste 0 -- -- 72
2020-03-30 12:00:00 18 19 Oeste 27 Oeste 0 -- -- 70
2020-03-30 11:00:00 16.8 14 Oeste 25 Oeste 0 -- -- 76
2020-03-30 10:00:00 16.1 13 Oeste 22 Oeste 0 -- -- 79
2020-03-30 09:00:00 14.9 8 Oeste 11 Oeste 0 -- -- 88
2020-03-30 08:00:00 13 5 Sudoeste 8 Sudoeste 0 -- -- 90
2020-03-30 07:00:00 12.9 4 Sudoeste 7 Sudoeste 0 -- -- 89
2020-03-30 06:00:00 12.6 5 Sudoeste 7 Sudoeste 0 -- -- 88
2020-03-30 05:00:00 12.5 4 Sudoeste 8 Oeste 0 -- -- 87
2020-03-30 04:00:00 12.2 5 Sudoeste 6 Sudoeste 0 -- -- 85
2020-03-30 03:00:00 12 4 Sudoeste -- -- 0 -- -- 84
2020-03-30 02:00:00 12.2 4 Sur 4 Sudoeste 0 -- -- 82
2020-03-30 01:00:00 12.4 2 Sudoeste 4 Oeste 0 -- -- 80
2020-03-30 00:00:00 13.6 3 Sudoeste 8 Noroeste 0 -- -- 77
2020-03-29 23:00:00 14.8 5 Noroeste 9 Noroeste 0 -- -- 76
2020-03-29 22:00:00 15.1 4 Noroeste 12 Noroeste 0 -- -- 77
2020-03-29 21:00:00 15.6 8 Noroeste 15 Noroeste 0 -- -- 75
2020-03-29 20:00:00 16.4 10 Noroeste 18 Noroeste 0 -- -- 70
2020-03-29 19:00:00 17.2 11 Noroeste 21 Noroeste 0 -- -- 67
2020-03-29 18:00:00 17.6 15 Noroeste 24 Noroeste 0 -- -- 64
2020-03-29 17:00:00 18 13 Norte 22 Noroeste 0 -- -- 63
2020-03-29 16:00:00 17.9 13 Norte 21 Noroeste 0 -- -- 62
2020-03-29 15:00:00 17.8 13 Norte 22 Norte 0 -- -- 60
2020-03-29 14:00:00 18.7 13 Norte 25 Norte 0 -- -- 55
2020-03-29 13:00:00 18.9 12 Norte 22 Noroeste 0 -- -- 50
2020-03-29 12:00:00 17.9 8 Noroeste 17 Norte 0 -- -- 57
2020-03-29 11:00:00 16.8 8 Noroeste 13 Norte 0 -- -- 65
2020-03-29 10:00:00 15.4 5 Norte 12 Nordeste 0 -- -- 78
2020-03-29 09:00:00 13.5 4 Sudeste 5 Sudeste 0 -- -- 89
2020-03-29 08:00:00 11.2 0 Calma 3 Sudeste 0 -- -- 88
2020-03-29 07:00:00 11.6 0 Calma 6 Norte 0 -- -- 88
2020-03-29 06:00:00 12.2 2 Norte 11 Nordeste 0 -- -- 86
2020-03-29 05:00:00 13.9 7 Nordeste 13 Nordeste 0 -- -- 84
2020-03-29 04:00:00 13.7 5 Nordeste 15 Nordeste 0 -- -- 84
2020-03-29 00:00:00 14.6 6 Nordeste 12 Nordeste 0 -- -- 84
2020-03-28 23:00:00 14.5 4 Nordeste 13 Norte 0 -- -- 81
2020-03-28 22:00:00 15.1 7 Norte 12 Norte 0 -- -- 81
2020-03-28 21:00:00 15.2 6 Norte 15 Norte 0 -- -- 80
2020-03-28 20:00:00 15.5 11 Norte 17 Norte 0 -- -- 77
2020-03-28 19:00:00 16.1 12 Norte 23 Norte 0 -- -- 74
2020-03-28 18:00:00 16.9 15 Norte 23 Norte 0 -- -- 72
2020-03-28 17:00:00 17.8 15 Norte 26 Norte 0 -- -- 64
2020-03-28 16:00:00 18.5 15 Norte 26 Norte 0 -- -- 64
2020-03-28 15:00:00 18.4 13 Norte 26 Norte 0 -- -- 63
2020-03-28 14:00:00 18.8 15 Norte 31 Norte 0 -- -- 61
2020-03-28 13:00:00 18.2 16 Norte 30 Nordeste 0 -- -- 64
2020-03-28 12:00:00 18 14 Norte 24 Norte 0 -- -- 65
2020-03-28 11:00:00 16.9 14 Norte 20 Norte 0 -- -- 72
2020-03-28 10:00:00 15.5 9 Norte 15 Noroeste 0 -- -- 80
2020-03-28 09:00:00 14.9 6 Noroeste 9 Norte 0 -- -- 85
2020-03-28 08:00:00 13.7 2 Norte 6 Norte 0 -- -- 90
2020-03-28 07:00:00 12.3 0 Calma 6 Noroeste 0 -- -- 90
2020-03-28 06:00:00 12.5 5 Noroeste 8 Noroeste 0 -- -- 91
2020-03-28 05:00:00 12.5 0 Calma 3 Norte 0 -- -- 90
2020-03-28 04:00:00 12.4 0 Calma 6 Noroeste 0 -- -- 89
2020-03-28 03:00:00 12.6 0 Calma 2 Oeste 0 -- -- 88
2020-03-28 02:00:00 12.9 0 Calma 3 Noroeste 0 -- -- 88
2020-03-28 01:00:00 13.6 0 Calma 5 Sur 0 -- -- 86
2020-03-28 00:00:00 14 3 Norte 5 Noroeste 0 -- -- 84
2020-03-27 23:00:00 14.3 2 Norte 8 Noroeste 0 -- -- 84
2020-03-27 22:00:00 14.8 6 Noroeste 9 Noroeste 0 -- -- 83
2020-03-27 21:00:00 14.9 4 Noroeste 9 Noroeste 0 -- -- 81
2020-03-27 20:00:00 15.3 5 Norte 13 Noroeste 0 -- -- 79
2020-03-27 19:00:00 15.8 10 Noroeste 17 Noroeste 0 -- -- 75
2020-03-27 18:00:00 16.2 11 Noroeste 20 Noroeste 0 -- -- 73
2020-03-27 17:00:00 17 12 Noroeste 24 Noroeste 0 -- -- 63
2020-03-27 16:00:00 17.7 16 Norte 26 Norte 0 -- -- 61
2020-03-27 15:00:00 17.2 16 Noroeste 33 Noroeste 0 -- -- 65
2020-03-27 14:00:00 18.7 15 Noroeste 26 Norte 0 -- -- 62
2020-03-27 13:00:00 18.2 13 Noroeste 26 Noroeste 0 -- -- 62
2020-03-27 12:00:00 17.9 15 Noroeste 25 Noroeste 0 -- -- 65
2020-03-27 11:00:00 17.1 16 Noroeste 26 Noroeste 0 -- -- 68
2020-03-27 10:00:00 16.4 19 Noroeste 27 Noroeste 0 -- -- 76
2020-03-27 09:00:00 16.2 13 Noroeste 23 Norte 0 -- -- 75
2020-03-27 08:00:00 14.7 11 Noroeste 21 Noroeste 0 -- -- 84
2020-03-27 07:00:00 14.1 15 Noroeste 24 Noroeste 0 -- -- 84
2020-03-27 06:00:00 14 10 Noroeste 21 Noroeste 0 -- -- 87
2020-03-27 05:00:00 14 14 Noroeste 19 Noroeste 0 -- -- 86
2020-03-27 04:00:00 14 11 Noroeste 19 Noroeste 0 -- -- 86
2020-03-27 03:00:00 14.3 11 Noroeste 19 Noroeste 0 -- -- 87
2020-03-27 02:00:00 14.2 7 Noroeste 11 Noroeste 0.2 -- -- 87
2020-03-27 01:00:00 14.2 0 Calma 10 Norte 0 -- -- 86
2020-03-27 00:00:00 14.5 5 Norte 13 Norte 0 -- -- 86
2020-03-26 23:00:00 14.6 6 Norte 17 Noroeste 0 -- -- 86
2020-03-26 22:00:00 14.9 10 Noroeste 15 Noroeste 0 -- -- 88
2020-03-26 21:00:00 15 9 Noroeste 15 Norte 0 -- -- 87
2020-03-26 20:00:00 14.5 12 Norte 30 Noroeste 0.8 -- -- 86
2020-03-26 19:00:00 15.8 9 Norte 22 Noroeste 0 -- -- 78
2020-03-26 18:00:00 16.1 17 Norte 26 Noroeste 0 -- -- 71
2020-03-26 17:00:00 16.9 15 Noroeste 28 Noroeste 0 -- -- 64
2020-03-26 16:00:00 18 16 Noroeste 25 Noroeste 0 -- -- 63
2020-03-26 15:00:00 18.2 14 Noroeste 25 Noroeste 0 -- -- 59
2020-03-26 14:00:00 18 14 Noroeste 23 Noroeste 0 -- -- 60
2020-03-26 13:00:00 17.4 14 Norte 22 Noroeste 0 -- -- 60
2020-03-26 12:00:00 17.7 14 Noroeste 27 Norte 0 -- -- 62
2020-03-26 11:00:00 17.1 13 Norte 23 Noroeste 0 -- -- 65
2020-03-26 10:00:00 16.5 12 Noroeste 20 Noroeste 0 -- -- 66
2020-03-26 09:00:00 14.6 11 Noroeste 19 Norte 0 -- -- 75
2020-03-26 08:00:00 13.7 6 Noroeste 11 Noroeste 0 -- -- 83
2020-03-26 07:00:00 12 0 Calma 7 Noroeste 0 -- -- 85
2020-03-26 06:00:00 11.7 0 Calma 4 Noroeste 0 -- -- 85
2020-03-26 05:00:00 12.2 4 Noroeste 10 Norte 0 -- -- 84
2020-03-26 04:00:00 12.4 5 Norte 9 Nordeste 0 -- -- 84
2020-03-26 03:00:00 12.7 6 Norte 13 Norte 0 -- -- 83
2020-03-26 02:00:00 13.1 6 Norte 13 Norte 0 -- -- 82
2020-03-26 01:00:00 13.4 7 Norte 19 Nordeste 0 -- -- 80
2020-03-26 00:00:00 13.6 10 Nordeste 21 Nordeste 0 -- -- 81
2020-03-25 23:00:00 13.9 7 Norte 17 Norte 0 -- -- 80
2020-03-25 22:00:00 14.4 9 Norte 19 Norte 0 -- -- 77
2020-03-25 21:00:00 14.6 12 Norte 20 Norte 0 -- -- 75
2020-03-25 20:00:00 14.9 12 Norte 23 Norte 0 -- -- 75
2020-03-25 19:00:00 15.3 15 Norte 24 Norte 0 -- -- 72
2020-03-25 18:00:00 16.5 17 Norte 35 Norte 0 -- -- 67
2020-03-25 17:00:00 17 19 Norte 32 Norte 0 -- -- 66
2020-03-25 16:00:00 17.2 19 Norte 31 Norte 0 -- -- 63
2020-03-25 15:00:00 17.5 18 Norte 33 Norte 0 -- -- 60
2020-03-25 14:00:00 18.2 17 Norte 28 Norte 0 -- -- 59
2020-03-25 13:00:00 17.9 17 Norte 31 Norte 0 -- -- 61
2020-03-25 12:00:00 16.7 16 Norte 26 Norte 0 -- -- 64
2020-03-25 11:00:00 16.4 15 Norte 25 Norte 0 -- -- 69
2020-03-25 10:00:00 16.1 10 Norte 24 Norte 0 -- -- 69
2020-03-25 09:00:00 15.7 12 Norte 22 Norte 0 -- -- 71
2020-03-25 08:00:00 14.8 10 Nordeste 22 Nordeste 0 -- -- 75
2020-03-25 07:00:00 13.9 14 Nordeste 31 Norte 0 -- -- 77
2020-03-25 06:00:00 13.6 17 Nordeste 29 Nordeste 0 -- -- 80
2020-03-25 05:00:00 13.5 11 Norte 22 Norte 0 -- -- 78
2020-03-25 04:00:00 13.8 13 Norte 35 Nordeste 0 -- -- 80
2020-03-25 03:00:00 14.3 17 Norte 23 Norte 0 -- -- 80
2020-03-25 02:00:00 14.4 14 Norte 27 Norte 0 -- -- 79
2020-03-25 01:00:00 14.6 17 Norte 26 Noroeste 0 -- -- 79
2020-03-25 00:00:00 14.7 16 Noroeste 29 Noroeste 0 -- -- 80
2020-03-24 23:00:00 14.6 11 Norte 28 Norte 0 -- -- 80
2020-03-24 22:00:00 14.8 16 Norte 30 Norte 0 -- -- 79
2020-03-24 21:00:00 14.4 13 Norte 32 Noroeste 0 -- -- 83
2020-03-24 20:00:00 14.6 24 Norte 38 Norte 0 -- -- 79
2020-03-24 19:00:00 15.4 23 Noroeste 45 Noroeste 0 -- -- 73
2020-03-24 18:00:00 15.9 31 Noroeste 49 Noroeste 0 -- -- 72
2020-03-24 17:00:00 16.8 33 Noroeste 50 Noroeste 0 -- -- 68
2020-03-24 16:00:00 17.3 27 Noroeste 51 Noroeste 0 -- -- 69
2020-03-24 15:00:00 17.8 31 Noroeste 48 Noroeste 0 -- -- 66
2020-03-24 14:00:00 18 26 Noroeste 48 Noroeste 0 -- -- 63
2020-03-24 13:00:00 17.8 29 Noroeste 47 Norte 0 -- -- 62
2020-03-24 12:00:00 17.1 27 Norte 46 Noroeste 0 -- -- 71
2020-03-24 11:00:00 16.6 27 Noroeste 50 Noroeste 0 -- -- 74
2020-03-24 10:00:00 15.4 28 Noroeste 48 Norte 0 -- -- 79
2020-03-24 09:00:00 14.6 24 Noroeste 41 Noroeste 0 -- -- 86
2020-03-24 08:00:00 14.4 21 Noroeste 41 Noroeste 0 -- -- 85
2020-03-24 07:00:00 14.1 24 Noroeste 37 Noroeste 0 -- -- 86
2020-03-24 06:00:00 14 19 Noroeste 38 Noroeste 0 -- -- 84
2020-03-24 05:00:00 14 24 Noroeste 39 Noroeste 0 -- -- 81
2020-03-24 04:00:00 13.9 19 Noroeste 35 Norte 0.2 -- -- 79
2020-03-24 03:00:00 13.9 24 Norte 37 Norte 0 -- -- 76
2020-03-24 02:00:00 13.9 21 Norte 37 Norte 0 -- -- 79
2020-03-24 01:00:00 13.3 19 Noroeste 43 Noroeste 0.4 -- -- 87
2020-03-24 00:00:00 14.1 21 Norte 39 Norte 1.4 -- -- 85
2020-03-23 23:00:00 14.7 19 Norte 37 Norte 0 -- -- 74
2020-03-23 22:00:00 14.6 18 Norte 46 Norte 0 -- -- 79
2020-03-23 21:00:00 14.6 28 Norte 45 Norte 0 -- -- 71
2020-03-23 20:00:00 14.2 25 Noroeste 42 Norte 0 -- -- 81
2020-03-23 19:00:00 15.1 20 Norte 44 Norte 0 -- -- 77
2020-03-23 18:00:00 15.5 27 Norte 43 Noroeste 0 -- -- 76
2020-03-23 17:00:00 15.7 31 Noroeste 46 Norte 0 -- -- 76
2020-03-23 16:00:00 15.6 26 Norte 42 Norte 0 -- -- 77
2020-03-23 15:00:00 15.4 22 Norte 40 Norte 0 -- -- 73
2020-03-23 14:00:00 14.3 24 Norte 39 Norte 0 -- -- 78
2020-03-23 13:00:00 13.3 28 Norte 41 Norte 0.6 -- -- 85
2020-03-23 12:00:00 14 23 Noroeste 36 Noroeste 0 -- -- 80
2020-03-23 11:00:00 14.9 19 Norte 31 Noroeste 0 -- -- 74
2020-03-23 10:00:00 14.4 18 Norte 24 Norte 0 -- -- 77
2020-03-23 09:00:00 13.4 10 Nordeste 15 Nordeste 0 -- -- 83
2020-03-23 08:00:00 11.3 3 Norte 19 Nordeste 0 -- -- 87
2020-03-23 07:00:00 10.3 2 Sudeste 9 Nordeste 0 -- -- 90
2020-03-23 06:00:00 10.9 2 Sudoeste 19 Oeste 0 -- -- 89
2020-03-23 05:00:00 10.9 4 Sudoeste 27 Oeste 5 -- -- 91
2020-03-23 04:00:00 11.5 2 Sudeste 5 Oeste 0 -- -- 92
2020-03-23 03:00:00 11.6 3 Oeste 14 Oeste 1 -- -- 92
2020-03-23 02:00:00 12 6 Oeste 16 Oeste 0 -- -- 90
2020-03-23 01:00:00 11.7 12 Oeste 36 Oeste 0.4 -- -- 88
2020-03-23 00:00:00 13.2 10 Oeste 16 Oeste 0 -- -- 89
2020-03-22 23:00:00 13.1 5 Oeste 21 Oeste 2.2 -- -- 90
2020-03-22 22:00:00 13.3 10 Sudoeste 22 Oeste 0 -- -- 87
2020-03-22 21:00:00 13.5 14 Oeste 24 Oeste 0 -- -- 89
2020-03-22 20:00:00 13.6 15 Noroeste 26 Noroeste 0 -- -- 91
2020-03-22 19:00:00 14 20 Noroeste 32 Oeste 0 -- -- 91
2020-03-22 18:00:00 14.6 24 Oeste 49 Oeste 0.2 -- -- 84
2020-03-22 17:00:00 17.3 24 Oeste 40 Oeste 0 -- -- 61
2020-03-22 16:00:00 17.6 26 Oeste 41 Oeste 0 -- -- 55
2020-03-22 15:00:00 18.5 26 Oeste 43 Oeste 0 -- -- 50
2020-03-22 14:00:00 17.5 26 Noroeste 40 Oeste 0 -- -- 54
2020-03-22 13:00:00 17.3 25 Oeste 36 Oeste 0 -- -- 56
2020-03-22 12:00:00 16.8 18 Noroeste 27 Noroeste 0 -- -- 59
2020-03-22 11:00:00 16.2 18 Noroeste 27 Noroeste 0 -- -- 57
2020-03-22 10:00:00 15.7 17 Noroeste 28 Norte 0 -- -- 61
2020-03-22 09:00:00 14.9 16 Noroeste 32 Noroeste 0 -- -- 66
2020-03-22 08:00:00 13.8 15 Noroeste 31 Norte 0 -- -- 69
2020-03-22 07:00:00 13.4 16 Noroeste 31 Noroeste 0 -- -- 65
2020-03-22 06:00:00 13.4 21 Noroeste 38 Noroeste 0 -- -- 69
2020-03-22 05:00:00 13.3 20 Noroeste 35 Noroeste 0 -- -- 70
2020-03-22 04:00:00 13.6 20 Norte 35 Noroeste 0 -- -- 75
2020-03-22 03:00:00 13.5 21 Noroeste 40 Noroeste 0 -- -- 66
2020-03-22 02:00:00 13.7 21 Noroeste 34 Noroeste 0 -- -- 71
2020-03-22 01:00:00 13.5 16 Norte 33 Norte 0 -- -- 66
2020-03-22 00:00:00 13.8 21 Norte 35 Norte 0 -- -- 64
2020-03-21 23:00:00 14 20 Norte 36 Norte 0 -- -- 66
2020-03-21 22:00:00 13.9 26 Norte 38 Noroeste 0 -- -- 73
2020-03-21 21:00:00 14 19 Norte 41 Noroeste 0 -- -- 65
2020-03-21 20:00:00 14.1 22 Norte 40 Norte 0 -- -- 65
2020-03-21 19:00:00 14.6 27 Norte 42 Norte 0 -- -- 60
2020-03-21 18:00:00 15.4 21 Norte 41 Noroeste 0 -- -- 60
2020-03-21 17:00:00 15.9 26 Norte 39 Norte 0 -- -- 59
2020-03-21 16:00:00 16.4 22 Norte 37 Norte 0 -- -- 57
2020-03-21 15:00:00 16.2 25 Norte 41 Noroeste 0 -- -- 59
2020-03-21 14:00:00 16.8 25 Noroeste 40 Noroeste 0 -- -- 53
2020-03-21 13:00:00 16.9 21 Noroeste 37 Noroeste 0 -- -- 51
2020-03-21 12:00:00 16.5 23 Norte 41 Noroeste 0 -- -- 46
2020-03-21 11:00:00 15.5 18 Norte 32 Norte 0 -- -- 56
2020-03-21 10:00:00 15.4 22 Norte 39 Norte 0 -- -- 52
2020-03-21 09:00:00 14.4 24 Norte 39 Norte 0 -- -- 57
2020-03-21 08:00:00 14.2 25 Norte 37 Norte 0 -- -- 63
2020-03-21 07:00:00 13.7 12 Norte 32 Nordeste 0 -- -- 68
2020-03-21 06:00:00 13.8 19 Norte 39 Norte 0 -- -- 59
2020-03-21 05:00:00 13.7 19 Norte 40 Norte 0 -- -- 66
2020-03-21 04:00:00 13.8 21 Norte 39 Norte 0 -- -- 61
2020-03-21 03:00:00 13.7 24 Norte 40 Norte 0 -- -- 60
2020-03-21 02:00:00 14.2 22 Norte 37 Norte 0 -- -- 63
2020-03-21 01:00:00 13.8 20 Norte 34 Norte 0 -- -- 75
2020-03-21 00:00:00 14.3 19 Norte 31 Norte 0 -- -- 77
2020-03-20 23:00:00 14.1 17 Norte 32 Norte 0 -- -- 82
2020-03-20 22:00:00 14.2 24 Nordeste 39 Nordeste 0 -- -- 88
2020-03-20 21:00:00 14.5 23 Nordeste 37 Nordeste 0 -- -- 86
2020-03-20 20:00:00 15 24 Norte 37 Norte 0 -- -- 83
2020-03-20 19:00:00 14.9 23 Norte 36 Noroeste 0 -- -- 85
2020-03-20 18:00:00 15.9 22 Norte 37 Norte 0 -- -- 78
2020-03-20 17:00:00 16.7 23 Norte 40 Norte 0 -- -- 69
2020-03-20 16:00:00 17.2 23 Norte 43 Norte 0 -- -- 65
2020-03-20 15:00:00 17.1 23 Norte 38 Noroeste 0 -- -- 67
2020-03-20 14:00:00 17 26 Norte 42 Noroeste 0 -- -- 70
2020-03-20 13:00:00 16.9 24 Norte 36 Norte 0 -- -- 72
2020-03-20 12:00:00 16.7 26 Norte 46 Norte 0 -- -- 76
2020-03-20 11:00:00 16.1 23 Norte 40 Norte 0 -- -- 83
2020-03-20 10:00:00 15.6 26 Norte 42 Norte 0 -- -- 85
2020-03-20 09:00:00 15.4 21 Norte 39 Norte 0 -- -- 88
2020-03-20 08:00:00 15 23 Norte 39 Noroeste 0 -- -- 90
2020-03-20 07:00:00 14.9 22 Norte 40 Norte 0 -- -- 90
2020-03-20 06:00:00 15 23 Norte 35 Noroeste 0 -- -- 91
2020-03-20 05:00:00 15.2 20 Noroeste 40 Norte 0 -- -- 91
2020-03-20 04:00:00 15.3 21 Norte 36 Norte 1 -- -- 92
2020-03-20 03:00:00 15.5 22 Norte 34 Norte 0 -- -- 90
2020-03-20 02:00:00 15.5 19 Norte 46 Noroeste 0 -- -- 90
2020-03-20 01:00:00 15.5 24 Noroeste 41 Noroeste 0 -- -- 90
2020-03-20 00:00:00 15.6 29 Noroeste 44 Noroeste 0 -- -- 89
2020-03-19 23:00:00 15.8 27 Noroeste 43 Noroeste 0 -- -- 88
2020-03-19 22:00:00 15.9 24 Noroeste 39 Noroeste 0 -- -- 85
2020-03-19 21:00:00 15.9 23 Noroeste 39 Noroeste 0 -- -- 86
2020-03-19 20:00:00 16 23 Norte 40 Noroeste 0 -- -- 86
2020-03-19 19:00:00 16.3 24 Noroeste 39 Noroeste 0 -- -- 86
2020-03-19 18:00:00 16.7 26 Norte 45 Noroeste 0 -- -- 83
2020-03-19 17:00:00 16.9 26 Noroeste 44 Noroeste 0 -- -- 81
2020-03-19 16:00:00 17.3 26 Norte 45 Noroeste 0 -- -- 79
2020-03-19 15:00:00 18.1 27 Noroeste 44 Noroeste 0 -- -- 71
2020-03-19 14:00:00 18.1 23 Noroeste 40 Noroeste 0 -- -- 63
2020-03-19 13:00:00 17.6 27 Norte 42 Norte 0 -- -- 63
2020-03-19 12:00:00 17.3 24 Norte 35 Norte 0 -- -- 65
2020-03-19 11:00:00 16.4 24 Norte 38 Nordeste 0 -- -- 69
2020-03-19 10:00:00 15.5 21 Norte 33 Norte 0 -- -- 74
2020-03-19 09:00:00 14.9 23 Norte 34 Norte 0 -- -- 73
2020-03-19 08:00:00 13.8 19 Norte 27 Norte 0 -- -- 79
2020-03-19 07:00:00 13.4 14 Norte 30 Norte 0 -- -- 85
2020-03-19 06:00:00 14.1 19 Norte 32 Norte 0.2 -- -- 87
2020-03-19 05:00:00 14.4 23 Noroeste 46 Noroeste 0 -- -- 86
2020-03-19 04:00:00 14.3 27 Noroeste 55 Noroeste 0.6 -- -- 85
2020-03-19 03:00:00 14.6 28 Noroeste 51 Noroeste 0 -- -- 76
2020-03-19 02:00:00 14.5 33 Noroeste 49 Noroeste 0 -- -- 70
2020-03-19 01:00:00 14.2 26 Noroeste 43 Noroeste 0 -- -- 70
2020-03-19 00:00:00 14.3 28 Noroeste 50 Norte 0 -- -- 71
2020-03-18 23:00:00 14.2 30 Noroeste 51 Noroeste 0 -- -- 67
2020-03-18 22:00:00 14.4 29 Noroeste 55 Norte 0 -- -- 73
2020-03-18 21:00:00 14.5 39 Noroeste 63 Noroeste 0 -- -- 79
2020-03-18 20:00:00 14.7 41 Noroeste 71 Noroeste 0 -- -- 79
2020-03-18 19:00:00 15.4 44 Noroeste 65 Noroeste 0 -- -- 70
2020-03-18 18:00:00 15.8 39 Noroeste 56 Noroeste 0 -- -- 63
2020-03-18 17:00:00 15.9 37 Noroeste 51 Noroeste 0 -- -- 68
2020-03-18 16:00:00 16.6 32 Noroeste 48 Noroeste 0 -- -- 61
2020-03-18 15:00:00 16.9 31 Noroeste 47 Noroeste 0 -- -- 61
2020-03-18 14:00:00 17 27 Noroeste 46 Noroeste 0 -- -- 52
2020-03-18 13:00:00 16.8 25 Noroeste 42 Noroeste 0 -- -- 59
2020-03-18 12:00:00 15.8 26 Noroeste 44 Noroeste 0 -- -- 73
2020-03-18 11:00:00 15.7 28 Norte 41 Norte 0 -- -- 68
2020-03-18 10:00:00 14.5 19 Norte 41 Norte 0.2 -- -- 79
2020-03-18 09:00:00 15.1 27 Noroeste 44 Noroeste 0 -- -- 72
2020-03-18 08:00:00 13.5 19 Norte 35 Norte 0 -- -- 76
2020-03-18 07:00:00 12.5 19 Norte 45 Norte 0.8 -- -- 91
2020-03-18 06:00:00 13.2 23 Noroeste 45 Norte 0 -- -- 80
2020-03-18 05:00:00 13.1 21 Noroeste 40 Norte 0.2 -- -- 87
2020-03-18 04:00:00 12.9 31 Norte 50 Norte 0 -- -- 85
2020-03-18 03:00:00 13.1 15 Noroeste 30 Norte 0 -- -- 79
2020-03-18 02:00:00 12.3 16 Norte 40 Norte 0.2 -- -- 86
2020-03-18 01:00:00 14.1 18 Norte 42 Norte 0 -- -- 63
2020-03-18 00:00:00 13.9 21 Norte 34 Norte 0 -- -- 58
2020-03-17 23:00:00 13.6 21 Norte 47 Norte 0 -- -- 71
2020-03-17 22:00:00 13.5 26 Norte 38 Norte 0 -- -- 74
2020-03-17 21:00:00 13.8 26 Norte 45 Norte 0 -- -- 68
2020-03-17 20:00:00 14.1 24 Norte 42 Norte 0 -- -- 63
2020-03-17 19:00:00 14.3 29 Norte 45 Norte 0 -- -- 66
2020-03-17 18:00:00 14.8 26 Norte 45 Norte 0 -- -- 68
2020-03-17 17:00:00 15.9 30 Norte 46 Norte 0 -- -- 60
2020-03-17 16:00:00 15.9 32 Norte 50 Norte 0 -- -- 59
2020-03-17 15:00:00 16.1 32 Norte 48 Norte 0 -- -- 62
2020-03-17 14:00:00 16.5 28 Norte 47 Nordeste 0 -- -- 64
2020-03-17 13:00:00 16.2 32 Norte 48 Norte 0 -- -- 61
2020-03-17 12:00:00 15.1 30 Norte 60 Norte 0 -- -- 66
2020-03-17 11:00:00 15.8 30 Norte 67 Nordeste 0 -- -- 65
2020-03-17 10:00:00 14.6 33 Nordeste 55 Nordeste 0 -- -- 71
2020-03-17 09:00:00 14.3 30 Nordeste 51 Nordeste 0 -- -- 68
2020-03-17 08:00:00 13.6 31 Norte 46 Norte 0 -- -- 70
2020-03-17 07:00:00 13.6 30 Norte 54 Norte 0 -- -- 69
2020-03-17 06:00:00 13.1 25 Nordeste 54 Norte 0 -- -- 72
2020-03-17 05:00:00 13.2 24 Norte 59 Norte 0 -- -- 75
2020-03-17 04:00:00 13.6 29 Nordeste 54 Norte 0 -- -- 71
2020-03-17 03:00:00 13.8 35 Nordeste 62 Norte 0 -- -- 63
2020-03-17 02:00:00 13.5 36 Nordeste 57 Nordeste 0 -- -- 72
2020-03-17 01:00:00 13.8 36 Nordeste 62 Este 0 -- -- 69
2020-03-17 00:00:00 13.9 32 Nordeste 54 Nordeste 0 -- -- 75
2020-03-16 23:00:00 14.3 33 Nordeste 55 Nordeste 0 -- -- 60
2020-03-16 22:00:00 14.2 35 Nordeste 57 Nordeste 0 -- -- 69
2020-03-16 21:00:00 14.5 29 Norte 50 Norte 0 -- -- 58
2020-03-16 20:00:00 14.3 32 Norte 50 Norte 0 -- -- 77
2020-03-16 19:00:00 15.2 30 Norte 50 Norte 0 -- -- 74
2020-03-16 18:00:00 15.7 32 Norte 57 Nordeste 0 -- -- 74
2020-03-16 17:00:00 16.4 36 Norte 53 Norte 0 -- -- 74
2020-03-16 16:00:00 17.4 32 Norte 50 Norte 0 -- -- 68
2020-03-16 15:00:00 16.8 37 Norte 60 Norte 0 -- -- 73
2020-03-16 14:00:00 17.4 33 Norte 49 Norte 0 -- -- 68
2020-03-16 13:00:00 17.8 28 Norte 48 Norte 0 -- -- 66
2020-03-16 12:00:00 18 29 Nordeste 52 Nordeste 0 -- -- 63
2020-03-16 11:00:00 17.4 31 Nordeste 50 Norte 0 -- -- 65
2020-03-16 10:00:00 17.2 36 Norte 57 Norte 0 -- -- 62
2020-03-16 09:00:00 15.6 27 Norte 47 Norte 0 -- -- 71
2020-03-16 08:00:00 15.2 30 Norte 43 Norte 0 -- -- 75
2020-03-16 07:00:00 15.1 27 Norte 40 Norte 0 -- -- 79
2020-03-16 06:00:00 14.8 22 Norte 40 Norte 0 -- -- 80
2020-03-16 05:00:00 14.8 22 Norte 41 Norte 0 -- -- 79
2020-03-16 04:00:00 14.9 24 Norte 49 Norte 0 -- -- 81
2020-03-16 03:00:00 14.8 26 Norte 49 Norte 0 -- -- 78
2020-03-16 02:00:00 15 24 Norte 39 Norte 0 -- -- 81
2020-03-16 01:00:00 15 23 Norte 46 Nordeste 0 -- -- 81
2020-03-16 00:00:00 15.1 26 Norte 48 Norte 0 -- -- 80
2020-03-15 23:00:00 15.2 21 Norte 39 Norte 0 -- -- 84
2020-03-15 22:00:00 15.4 21 Norte 37 Norte 0 -- -- 77
2020-03-15 21:00:00 15.4 20 Norte 35 Norte 0 -- -- 79
2020-03-15 20:00:00 15.5 24 Norte 36 Norte 0 -- -- 77
2020-03-15 19:00:00 15.9 21 Norte 37 Norte 0 -- -- 75
2020-03-15 18:00:00 16.4 23 Norte 37 Noroeste 0 -- -- 71
2020-03-15 17:00:00 16.9 21 Norte 37 Norte 0 -- -- 73
2020-03-15 16:00:00 17.4 24 Norte 37 Noroeste 0 -- -- 64
2020-03-15 15:00:00 17.1 25 Norte 39 Noroeste 0 -- -- 66
2020-03-15 14:00:00 17.3 24 Norte 41 Norte 0 -- -- 69
2020-03-15 13:00:00 17.4 23 Norte 39 Norte 0 -- -- 62
2020-03-15 12:00:00 17.1 21 Norte 36 Norte 0 -- -- 63
2020-03-15 11:00:00 16.6 22 Norte 34 Norte 0 -- -- 64
2020-03-15 10:00:00 15.7 17 Norte 33 Noroeste 0 -- -- 74
2020-03-15 09:00:00 15.3 20 Norte 30 Norte 0 -- -- 69
2020-03-15 08:00:00 14.7 9 Norte 30 Norte 0 -- -- 72
2020-03-15 07:00:00 14.2 15 Nordeste 30 Norte 0 -- -- 76
2020-03-15 06:00:00 14.4 14 Norte 25 Norte 0 -- -- 77
2020-03-15 05:00:00 14.4 17 Norte 26 Norte 0 -- -- 77
2020-03-15 04:00:00 14.5 15 Norte 23 Norte 0 -- -- 79
2020-03-15 03:00:00 14.2 12 Norte 22 Norte 0 -- -- 86
2020-03-15 02:00:00 14.3 7 Norte 18 Norte 0 -- -- 83
2020-03-15 01:00:00 14.3 13 Norte 19 Norte 0 -- -- 82
2020-03-15 00:00:00 14.4 14 Norte 21 Norte 0 -- -- 82
2020-03-14 23:00:00 14.5 13 Norte 26 Norte 0 -- -- 80
2020-03-14 22:00:00 14.9 15 Norte 24 Norte 0 -- -- 77
2020-03-14 21:00:00 15 15 Norte 26 Norte 0 -- -- 78
2020-03-14 20:00:00 15.2 17 Norte 26 Norte 0 -- -- 81
2020-03-14 19:00:00 15.7 16 Norte 27 Norte 0 -- -- 75
2020-03-14 18:00:00 16.3 14 Norte 26 Norte 0 -- -- 67
2020-03-14 17:00:00 16.9 17 Norte 29 Norte 0 -- -- 67
2020-03-14 16:00:00 17 18 Norte 27 Norte 0 -- -- 68
2020-03-14 15:00:00 16.7 17 Norte 31 Norte 0 -- -- 68
2020-03-14 14:00:00 16.4 21 Norte 32 Norte 0 -- -- 72
2020-03-14 13:00:00 16.9 21 Norte 39 Nordeste 0 -- -- 71
2020-03-14 12:00:00 17.3 23 Norte 39 Norte 0 -- -- 65
2020-03-14 11:00:00 16.9 22 Norte 31 Nordeste 0 -- -- 66
2020-03-14 10:00:00 16.9 17 Norte 34 Norte 0 -- -- 60
2020-03-14 09:00:00 15.6 25 Norte 38 Norte 0 -- -- 61
2020-03-14 08:00:00 14.9 21 Nordeste 37 Nordeste 0 -- -- 69
2020-03-14 07:00:00 14.1 17 Nordeste 46 Norte 0 -- -- 75
2020-03-14 06:00:00 14.6 22 Nordeste 36 Nordeste 0 -- -- 78
2020-03-14 05:00:00 14.8 19 Nordeste 32 Norte 0 -- -- 80
2020-03-14 04:00:00 14.9 17 Nordeste 39 Nordeste 0 -- -- 73
2020-03-14 03:00:00 14.9 17 Nordeste 31 Nordeste 0 -- -- 85
2020-03-14 02:00:00 14.9 19 Nordeste 36 Norte 0 -- -- 82
2020-03-14 01:00:00 15.1 20 Nordeste 40 Nordeste 0 -- -- 82
2020-03-14 00:00:00 15.1 25 Nordeste 45 Nordeste 0 -- -- 82
2020-03-13 23:00:00 15.2 23 Nordeste 46 Nordeste 0 -- -- 83
2020-03-13 22:00:00 15.3 24 Nordeste 42 Nordeste 0 -- -- 79
2020-03-13 21:00:00 15.6 23 Nordeste 37 Nordeste 0 -- -- 79
2020-03-13 20:00:00 15.6 23 Nordeste 45 Nordeste 0 -- -- 78
2020-03-13 19:00:00 16.2 21 Nordeste 40 Norte 0 -- -- 80
2020-03-13 18:00:00 16.7 23 Norte 35 Nordeste 0 -- -- 77
2020-03-13 17:00:00 17.2 24 Nordeste 39 Nordeste 0 -- -- 72
2020-03-13 16:00:00 17.6 26 Nordeste 40 Norte 0 -- -- 69
2020-03-13 15:00:00 17.9 24 Nordeste 40 Nordeste 0 -- -- 69
2020-03-13 14:00:00 18.7 25 Norte 38 Norte 0 -- -- 66
2020-03-13 13:00:00 19 22 Nordeste 37 Nordeste 0 -- -- 65
2020-03-13 12:00:00 18.6 22 Nordeste 39 Nordeste 0 -- -- 67
2020-03-13 11:00:00 17.5 23 Nordeste 39 Nordeste 0 -- -- 71
2020-03-13 10:00:00 16.5 21 Nordeste 40 Norte 0 -- -- 75
2020-03-13 09:00:00 15.9 21 Nordeste 36 Nordeste 0 -- -- 79
2020-03-13 08:00:00 15 20 Nordeste 36 Nordeste 0 -- -- 83
2020-03-13 07:00:00 14.8 15 Nordeste 28 Norte 0 -- -- 85
2020-03-13 06:00:00 14.7 17 Nordeste 31 Norte 0 -- -- 85
2020-03-13 05:00:00 14.8 18 Nordeste 31 Norte 0 -- -- 85
2020-03-13 04:00:00 14.7 21 Nordeste 40 Nordeste 0 -- -- 86
2020-03-13 03:00:00 14.8 24 Nordeste 37 Este 0 -- -- 88
2020-03-13 02:00:00 15 22 Nordeste 38 Nordeste 0 -- -- 90
2020-03-13 01:00:00 15.1 17 Nordeste 33 Nordeste 0 -- -- 91
2020-03-13 00:00:00 15.3 17 Nordeste 27 Nordeste 0 -- -- 92
2020-03-12 23:00:00 15.4 14 Nordeste 21 Nordeste 0 -- -- 92
2020-03-12 22:00:00 15.4 8 Nordeste 17 Este 0 -- -- 91
2020-03-12 21:00:00 15.8 4 Nordeste 20 Este 0 -- -- 88
2020-03-12 20:00:00 16 11 Nordeste 22 Norte 0 -- -- 88
2020-03-12 19:00:00 16.7 14 Norte 26 Norte 0 -- -- 86
2020-03-12 18:00:00 17.9 18 Norte 32 Norte 0 -- -- 82
2020-03-12 17:00:00 19.3 19 Norte 28 Norte 0 -- -- 75
2020-03-12 16:00:00 21.1 19 Norte 28 Norte 0 -- -- 68
2020-03-12 15:00:00 22.4 17 Norte 27 Norte 0 -- -- 61
2020-03-12 14:00:00 24.2 15 Norte 24 Nordeste 0 -- -- 53
2020-03-12 13:00:00 26.4 15 Nordeste 26 Este 0 -- -- 32
2020-03-12 12:00:00 25.4 12 Nordeste 28 Este 0 -- -- 38
2020-03-12 11:00:00 25.8 14 Este 22 Este 0 -- -- 21
2020-03-12 10:00:00 24.7 13 Nordeste 24 Sudeste 0 -- -- 23
2020-03-12 09:00:00 23.5 13 Este 25 Este 0 -- -- 20
2020-03-12 08:00:00 18.2 12 Sudeste 25 Sudeste 0 -- -- 41
2020-03-12 07:00:00 17.2 9 Sudeste 21 Sudeste 0 -- -- 43
2020-03-12 06:00:00 16.4 12 Sudeste 24 Sudeste 0 -- -- 55
2020-03-12 05:00:00 16.7 16 Sudeste 30 Sudeste 0 -- -- 58
2020-03-12 04:00:00 16.2 18 Sur 27 Sur 0 -- -- 64
2020-03-12 03:00:00 15.8 13 Sudeste 21 Sur 0 -- -- 60
2020-03-12 02:00:00 17.8 6 Sudeste 9 Este 0 -- -- 44
2020-03-12 01:00:00 17.6 5 Sudeste 12 Este 0 -- -- 47
2020-03-12 00:00:00 17.8 8 Este 15 Nordeste 0 -- -- 53
2020-03-11 23:00:00 17.4 9 Este 15 Este 0 -- -- 68
2020-03-11 22:00:00 17.4 2 Nordeste 6 Este 0 -- -- 74
2020-03-11 21:00:00 17.8 4 Sudeste 6 Sudeste 0 -- -- 73
2020-03-11 20:00:00 18.7 3 Noroeste 10 Norte 0 -- -- 73
2020-03-11 19:00:00 20.7 5 Nordeste 11 Norte 0 -- -- 65
2020-03-11 18:00:00 22.8 8 Norte 15 Norte 0 -- -- 58
2020-03-11 17:00:00 24.5 11 Norte 19 Norte 0 -- -- 43
2020-03-11 16:00:00 27.1 13 Norte 22 Nordeste 0 -- -- 40
2020-03-11 15:00:00 28 9 Sur 19 Sur 0 -- -- 17
2020-03-11 14:00:00 26.6 14 Sudeste 30 Sudeste 0 -- -- 25
2020-03-11 13:00:00 27.5 21 Sudeste 29 Sudeste 0 -- -- 21
2020-03-11 12:00:00 26 13 Sudeste 23 Este 0 -- -- 24
2020-03-11 11:00:00 25.4 14 Este 24 Este 0 -- -- 25
2020-03-11 10:00:00 22.5 13 Este 22 Sudeste 0 -- -- 30
2020-03-11 09:00:00 16.4 12 Sudeste 26 Sudeste 0 -- -- 84
2020-03-11 08:00:00 13.8 16 Sudeste 23 Sudeste 0 -- -- 91
2020-03-11 07:00:00 12.3 6 Sudeste 15 Sudeste 0 -- -- 91
2020-03-11 06:00:00 12.5 4 Sur 10 Sudoeste 0 -- -- 93
2020-03-11 05:00:00 12.3 6 Sur 10 Norte 0 -- -- 93
2020-03-11 04:00:00 14.4 6 Nordeste 19 Norte 0 -- -- 93
2020-03-11 03:00:00 14.7 15 Nordeste 23 Nordeste 0 -- -- 93
2020-03-11 02:00:00 14.6 13 Nordeste 21 Nordeste 0 -- -- 93
2020-03-11 01:00:00 14.7 10 Nordeste 17 Nordeste 0 -- -- 93
2020-03-11 00:00:00 14.8 13 Nordeste 22 Nordeste 0 -- -- 92
2020-03-10 23:00:00 15 12 Nordeste 22 Nordeste 0 -- -- 92
2020-03-10 22:00:00 15.1 13 Nordeste 23 Nordeste 0 -- -- 91
2020-03-10 21:00:00 15.4 14 Nordeste 25 Nordeste 0 -- -- 89
2020-03-10 20:00:00 15.7 14 Nordeste 26 Norte 0 -- -- 88
2020-03-10 19:00:00 16.4 16 Nordeste 26 Nordeste 0 -- -- 84
2020-03-10 18:00:00 17.7 18 Norte 26 Norte 0 -- -- 79
2020-03-10 17:00:00 19.2 15 Norte 24 Nordeste 0 -- -- 72
2020-03-10 16:00:00 20.5 15 Norte 23 Norte 0 -- -- 66
2020-03-10 15:00:00 20.6 14 Norte 27 Norte 0 -- -- 65
2020-03-10 14:00:00 20.8 15 Norte 25 Nordeste 0 -- -- 62
2020-03-10 13:00:00 20.7 15 Norte 23 Norte 0 -- -- 63
2020-03-10 12:00:00 20.3 14 Norte 20 Norte 0 -- -- 63
2020-03-10 11:00:00 19.1 10 Nordeste 24 Norte 0 -- -- 69
2020-03-10 10:00:00 17.7 16 Norte 25 Norte 0 -- -- 80
2020-03-10 09:00:00 16.2 13 Nordeste 17 Nordeste 0 -- -- 87
2020-03-10 08:00:00 14.6 5 Nordeste 18 Nordeste 0 -- -- 93
2020-03-10 07:00:00 14.6 13 Nordeste 23 Nordeste 0 -- -- 91
2020-03-10 06:00:00 14.5 16 Nordeste 33 Nordeste 0 -- -- 90
2020-03-10 05:00:00 14.3 19 Nordeste 28 Nordeste 0 -- -- 93
2020-03-10 04:00:00 13.7 12 Nordeste 24 Nordeste 0 -- -- 94
2020-03-10 03:00:00 13.6 5 Este 13 Este 0 -- -- 93
2020-03-10 02:00:00 13.6 8 Este 26 Nordeste 0 -- -- 90
2020-03-10 01:00:00 14.4 17 Nordeste 29 Nordeste 0 -- -- 90
2020-03-10 00:00:00 14.6 20 Nordeste 28 Nordeste 0 -- -- 89
2020-03-09 23:00:00 14.7 15 Nordeste 22 Nordeste 0 -- -- 89
2020-03-09 22:00:00 15.1 17 Nordeste 30 Nordeste 0 -- -- 87
2020-03-09 21:00:00 15.8 9 Nordeste 24 Nordeste 0 -- -- 79
2020-03-09 20:00:00 16 15 Nordeste 22 Nordeste 0 -- -- 80
2020-03-09 19:00:00 17 9 Nordeste 24 Norte 0 -- -- 78
2020-03-09 18:00:00 18.1 18 Nordeste 30 Nordeste 0 -- -- 76
2020-03-09 17:00:00 19.5 18 Nordeste 30 Nordeste 0 -- -- 70
2020-03-09 16:00:00 20.7 23 Norte 33 Norte 0 -- -- 60
2020-03-09 15:00:00 22 24 Norte 31 Norte 0 -- -- 57
2020-03-09 14:00:00 23.9 19 Norte 27 Norte 0 -- -- 50
2020-03-09 13:00:00 23.4 22 Norte 27 Norte 0 -- -- 53
2020-03-09 12:00:00 24.5 17 Nordeste 30 Norte 0 -- -- 36
2020-03-09 11:00:00 24.2 12 Nordeste 19 Nordeste 0 -- -- 37
2020-03-09 10:00:00 19.3 7 Nordeste 19 Este 0 -- -- 69
2020-03-09 09:00:00 16.9 9 Nordeste 22 Este 0 -- -- 84
2020-03-09 08:00:00 15.2 7 Este 16 Este 0 -- -- 88
2020-03-09 07:00:00 14.8 4 Nordeste 17 Este 0 -- -- 78
2020-03-09 06:00:00 17.1 17 Este 32 Este 0 -- -- 38
2020-03-09 05:00:00 16.4 27 Este 35 Este 0 -- -- 48
2020-03-09 04:00:00 15 22 Sudeste 28 Sudeste 0 -- -- 74
2020-03-09 03:00:00 14 11 Sudeste 16 Sudeste 0 -- -- 82
2020-03-09 02:00:00 14.4 10 Sudeste 27 Norte 0 -- -- 86
2020-03-09 01:00:00 15.2 22 Nordeste 42 Nordeste 0 -- -- 92
2020-03-09 00:00:00 15.4 27 Nordeste 37 Nordeste 0 -- -- 93
2020-03-08 23:00:00 15.6 17 Nordeste 36 Norte 0 -- -- 92
2020-03-08 22:00:00 15.9 12 Nordeste 27 Nordeste 0 -- -- 90
2020-03-08 21:00:00 16 7 Nordeste 23 Nordeste 0 -- -- 84
2020-03-08 20:00:00 16.3 13 Nordeste 22 Nordeste 0 -- -- 81
2020-03-08 19:00:00 17.2 12 Nordeste 22 Norte 0 -- -- 79
2020-03-08 18:00:00 18.7 14 Norte 29 Norte 0 -- -- 75
2020-03-08 17:00:00 19.6 21 Norte 30 Norte 0 -- -- 73
2020-03-08 16:00:00 21.7 21 Norte 34 Norte 0 -- -- 60
2020-03-08 15:00:00 26.3 13 Sudeste 26 Sudeste 0 -- -- 19
2020-03-08 14:00:00 25.3 15 Sudeste 34 Este 0 -- -- 24
2020-03-08 13:00:00 24.6 21 Este 36 Este 0 -- -- 26
2020-03-08 12:00:00 24.3 27 Este 48 Este 0 -- -- 35
2020-03-08 11:00:00 23.3 21 Este 35 Este 0 -- -- 36
2020-03-08 10:00:00 19.6 13 Este 21 Nordeste 0 -- -- 59
2020-03-08 09:00:00 16 15 Este 23 Nordeste 0 -- -- 93
2020-03-08 08:00:00 14.3 9 Este 20 Nordeste 0 -- -- 95
2020-03-08 07:00:00 14.7 8 Nordeste 23 Nordeste 0 -- -- 95
2020-03-08 06:00:00 14.7 12 Nordeste 21 Nordeste 0 -- -- 94
2020-03-08 05:00:00 14.8 11 Nordeste 20 Nordeste 0 -- -- 94
2020-03-08 04:00:00 15 3 Este 14 Norte 0 -- -- 93
2020-03-08 03:00:00 14.8 9 Norte 14 Norte 0 -- -- 91
2020-03-08 02:00:00 14.2 0 Calma 7 Noroeste 0 -- -- 90
2020-03-08 01:00:00 14.9 3 Este 20 Nordeste 0 -- -- 89
2020-03-08 00:00:00 15.1 12 Nordeste 30 Norte 0 -- -- 91